^^
Grace C. Lehan Memorial Weather Station Historical Data
Daily Summary for May 20, 2021 Units:  Metric    English   Both
Daily Weekly Monthly Yearly
  High: Low: Average:
Temperature: 31.2 °C 18.4 °C 25.9 °C
Dew Point: 21.2 °C 17.4 °C 19.6 °C
Humidity: 94% 49.6% 70%
Wind Speed: 3.2km/h 0km/h 0.5km/h
Wind Gust: 16.1km/h - -
Wind- - SW
Pressure: 1008.7 hPa 1006 hPa -
Precipitation: 0 mm    
 
 
Tabular Data for May 20, 2021
Time Temperature Dew Point Pressure Wind Wind Speed Wind Gust Humidity Rainfall Rate (Hourly) solar
00:00 19.9 °C 18.8 °C 1006.7 hPa Calm     93% 0.25 mm 0 W/m2
00:09 19.9 °C 18.8 °C 1006.7 hPa Calm     93% 0.25 mm 0 W/m2
00:14 19.9 °C 18.8 °C 1006.7 hPa Calm     93% 0.25 mm 0 W/m2
00:19 19.9 °C 18.9 °C 1006.7 hPa Calm     93.6% 0.25 mm 0 W/m2
00:24 19.9 °C 18.9 °C 1006.3 hPa Calm     94% 0.25 mm 0 W/m2
00:29 19.9 °C 18.9 °C 1006.7 hPa Calm     94% 0.25 mm 0 W/m2
00:34 19.9 °C 18.9 °C 1006.7 hPa Calm     93.9% 0.25 mm 0 W/m2
00:39 19.9 °C 18.9 °C 1006.7 hPa Calm     94% 0 mm 0 W/m2
00:44 19.9 °C 18.9 °C 1006.7 hPa Calm     94% 0 mm 0 W/m2
00:49 19.9 °C 18.9 °C 1006.7 hPa Calm     94% 0 mm 0 W/m2
00:54 19.9 °C 18.9 °C 1006.7 hPa Calm     94% 0 mm 0 W/m2
00:59 19.9 °C 18.9 °C 1006.7 hPa Calm     94% 0 mm 0 W/m2
01:04 19.8 °C 18.8 °C 1006.7 hPa Calm     93.8% 0 mm 0 W/m2
01:09 19.8 °C 18.7 °C 1006.7 hPa Calm     93% 0 mm 0 W/m2
01:14 19.8 °C 18.8 °C 1006.7 hPa Calm     93.8% 0 mm 0 W/m2
01:19 19.8 °C 18.8 °C 1006.7 hPa Calm     94% 0 mm 0 W/m2
01:24 19.7 °C 18.7 °C 1006.7 hPa Calm     93.5% 0 mm 0 W/m2
01:29 19.7 °C 18.6 °C 1006.7 hPa Calm     93% 0 mm 0 W/m2
01:34 19.7 °C 18.6 °C 1006.7 hPa Calm     93.8% 0 mm 0 W/m2
01:39 19.7 °C 18.7 °C 1007 hPa Calm     94% 0 mm 0 W/m2
01:44 19.7 °C 18.6 °C 1006.7 hPa Calm     93.8% 0 mm 0 W/m2
01:49 19.6 °C 18.4 °C 1007 hPa Calm     93% 0 mm 0 W/m2
01:54 19.6 °C 18.4 °C 1007 hPa Calm     93.4% 0 mm 0 W/m2
01:59 19.6 °C 18.4 °C 1006.7 hPa Calm     93.2% 0 mm 0 W/m2
02:04 19.6 °C 18.6 °C 1007 hPa Calm     93.9% 0 mm 0 W/m2
02:09 19.6 °C 18.6 °C 1007 hPa Calm     94% 0 mm 0 W/m2
02:14 19.6 °C 18.6 °C 1007 hPa Calm     94% 0 mm 0 W/m2
02:19 19.6 °C 18.6 °C 1007 hPa Calm     94% 0 mm 0 W/m2
02:24 19.6 °C 18.6 °C 1007 hPa Calm     94% 0 mm 0 W/m2
02:29 19.6 °C 18.6 °C 1007 hPa Calm     94% 0 mm 0 W/m2
02:34 19.5 °C 18.4 °C 1007 hPa Calm     93.6% 0 mm 0 W/m2
02:39 19.4 °C 18.3 °C 1007 hPa Calm     93% 0 mm 0 W/m2
02:43 19.3 °C 18.2 °C 1007 hPa Calm     93% 0 mm 0 W/m2
02:49 19.3 °C 18.1 °C 1007 hPa Calm     93% 0 mm 0 W/m2
02:54 19.2 °C 18 °C 1007 hPa Calm     93% 0 mm 0 W/m2
02:59 19.1 °C 17.9 °C 1006.7 hPa Calm     93% 0 mm 0 W/m2
03:04 19.1 °C 17.9 °C 1006.7 hPa Calm     93% 0 mm 0 W/m2
03:09 19 °C 17.8 °C 1007 hPa Calm     93% 0 mm 0 W/m2
03:14 19 °C 17.8 °C 1007 hPa Calm     93% 0 mm 0 W/m2
03:19 19 °C 17.9 °C 1007 hPa Calm     93% 0 mm 0 W/m2
03:24 19.1 °C 17.9 °C 1007 hPa Calm     93% 0 mm 0 W/m2
03:29 19.1 °C 17.9 °C 1007 hPa Calm     93% 0 mm 0 W/m2
03:34 19 °C 17.8 °C 1007 hPa Calm     92.8% 0 mm 0 W/m2
03:39 18.9 °C 17.6 °C 1007 hPa Calm     92% 0 mm 0 W/m2
03:44 18.9 °C 17.6 °C 1007 hPa Calm     92% 0 mm 0 W/m2
03:49 18.9 °C 17.7 °C 1007 hPa Calm     92.7% 0 mm 0 W/m2
03:54 18.9 °C 17.7 °C 1007 hPa Calm     93% 0 mm 0 W/m2
03:59 18.9 °C 17.7 °C 1007 hPa SSW 0.3 km/h 4.8 km/h 93% 0 mm 0 W/m2
04:00 18.9 °C 17.8 °C 1007 hPa Calm   4.8 km/h 93% 0 mm 0 W/m2
04:09 18.9 °C 17.8 °C 1007 hPa Calm     93% 0 mm 0 W/m2
04:14 18.9 °C 17.8 °C 1007 hPa Calm     93% 0 mm 0 W/m2
04:16 18.9 °C 17.8 °C 1007 hPa Calm     93% 0 mm 0 W/m2
04:30 18.9 °C 17.8 °C 1007 hPa Calm     93% 0 mm 0 W/m2
05:00 18.9 °C 17.9 °C 1007.3 hPa Calm     94% 0 mm 0 W/m2
05:30 18.9 °C 17.9 °C 1007 hPa Calm     94% 0 mm 0 W/m2
06:00 18.6 °C 17.6 °C 1007.7 hPa Calm     94% 0 mm 7 W/m2
06:30 18.4 °C 17.4 °C 1008 hPa Calm     94% 0 mm 17 W/m2
07:00 19.8 °C 18.7 °C 1008 hPa Calm   1.6 km/h 93% 0 mm 50 W/m2
07:30 22.7 °C 19.1 °C 1008.4 hPa Calm     80% 0 mm 116 W/m2
08:09 24.3 °C 19 °C 1008.4 hPa Calm     72.5% 0 mm 476 W/m2
08:14 24.4 °C 19.2 °C 1008.4 hPa Calm   1.6 km/h 72.5% 0 mm 494 W/m2
08:19 24.7 °C 19.3 °C 1008.7 hPa Calm   1.6 km/h 72% 0 mm 513 W/m2
08:24 24.8 °C 18.9 °C 1008.7 hPa SSE 0.3 km/h 4.8 km/h 69.7% 0 mm 526 W/m2
08:29 25.1 °C 19.2 °C 1008.7 hPa Calm   4.8 km/h 69.9% 0 mm 541 W/m2
08:34 25.3 °C 19.2 °C 1008.7 hPa Calm   4.8 km/h 69% 0 mm 557 W/m2
08:39 25.3 °C 18.9 °C 1008.7 hPa Calm     67.6% 0 mm 577 W/m2
08:44 25.5 °C 19.2 °C 1008.7 hPa Calm     68.5% 0 mm 592 W/m2
08:49 25.7 °C 19 °C 1008.7 hPa Calm   1.6 km/h 66.8% 0 mm 606 W/m2
08:54 25.7 °C 19.2 °C 1008.7 hPa SSE 0.6 km/h 6.4 km/h 67.2% 0 mm 621 W/m2
08:59 25.9 °C 19.3 °C 1008.7 hPa West 0.3 km/h 6.4 km/h 66.9% 0 mm 636 W/m2
09:04 26.1 °C 18.9 °C 1008.7 hPa Calm   6.4 km/h 64.6% 0 mm 652 W/m2
09:09 26.2 °C 18.9 °C 1008.7 hPa Calm     64.2% 0 mm 677 W/m2
09:14 26.4 °C 19.1 °C 1008.7 hPa WNW 0.2 km/h 4.8 km/h 64.2% 0 mm 686 W/m2
09:19 26.5 °C 19.2 °C 1008.4 hPa Calm   4.8 km/h 64% 0 mm 696 W/m2
09:24 26.6 °C 19.4 °C 1008.4 hPa Calm   4.8 km/h 64.6% 0 mm 700 W/m2
09:29 26.6 °C 19.3 °C 1008.4 hPa Calm   4.8 km/h 64.2% 0 mm 712 W/m2
09:34 26.8 °C 19.5 °C 1008.4 hPa WNW 0.2 km/h 4.8 km/h 64.2% 0 mm 733 W/m2
09:39 26.9 °C 19 °C 1008 hPa Calm   3.2 km/h 61.9% 0 mm 719 W/m2
09:44 27.1 °C 19.3 °C 1008 hPa WNW 1.4 km/h 6.4 km/h 62.7% 0 mm 788 W/m2
09:49 27.1 °C 19.2 °C 1008 hPa Calm   6.4 km/h 62% 0 mm 721 W/m2
09:54 27.1 °C 19.2 °C 1008 hPa Calm   6.4 km/h 62.3% 0 mm 677 W/m2
09:59 27.1 °C 19.1 °C 1008 hPa Calm   6.4 km/h 61.7% 0 mm 724 W/m2
10:04 27.1 °C 19.2 °C 1008 hPa Calm   6.4 km/h 62.1% 0 mm 735 W/m2
10:09 27 °C 18.9 °C 1008 hPa WNW 0.3 km/h 4.8 km/h 61.4% 0 mm 777 W/m2
10:14 27.1 °C 18.7 °C 1008 hPa Calm   4.8 km/h 59.9% 0 mm 805 W/m2
10:19 27.3 °C 18.9 °C 1008 hPa Calm   4.8 km/h 60.2% 0 mm 765 W/m2
10:24 27.5 °C 19.3 °C 1008 hPa WNW 0.5 km/h 4.8 km/h 60.9% 0 mm 689 W/m2
10:29 27.7 °C 19.3 °C 1008 hPa Calm   4.8 km/h 60.6% 0 mm 740 W/m2
10:34 27.8 °C 19.4 °C 1008 hPa Calm   4.8 km/h 60.3% 0 mm 749 W/m2
10:39 28.1 °C 18.9 °C 1008 hPa NW 0.2 km/h 3.2 km/h 57.7% 0 mm 793 W/m2
10:44 28.1 °C 18.8 °C 1008 hPa Calm   3.2 km/h 56.8% 0 mm 809 W/m2
10:49 28.2 °C 19.1 °C 1007.7 hPa Calm   3.2 km/h 57.8% 0 mm 809 W/m2
10:54 28.3 °C 19 °C 1007.7 hPa Calm   3.2 km/h 57.1% 0 mm 840 W/m2
10:59 28.4 °C 19.2 °C 1007.7 hPa Calm   3.2 km/h 57.2% 0 mm 807 W/m2
11:04 28.6 °C 19.3 °C 1007.7 hPa NNW 0.2 km/h 3.2 km/h 57.2% 0 mm 835 W/m2
11:09 28.6 °C 19.1 °C 1007.7 hPa NW 1.6 km/h 8 km/h 56.3% 0 mm 816 W/m2
11:14 28.6 °C 18.9 °C 1008 hPa NW 0.8 km/h 8 km/h 55.8% 0 mm 863 W/m2
11:19 28.7 °C 19.6 °C 1008 hPa Calm   8 km/h 57.9% 0 mm 831 W/m2
11:24 28.9 °C 19.7 °C 1008 hPa Calm   8 km/h 57.8% 0 mm 984 W/m2
11:29 29.1 °C 19.4 °C 1007.7 hPa Calm   8 km/h 56.2% 0 mm 833 W/m2
11:34 29.1 °C 19.2 °C 1007.7 hPa NW 0.8 km/h 8 km/h 55.4% 0 mm 803 W/m2
11:38 29 °C 19.2 °C 1007.7 hPa Calm   8 km/h 55.3% 0 mm 926 W/m2
12:09 29.8 °C 19.7 °C 1007.7 hPa WNW 1 km/h 6.4 km/h 54.8% 0 mm 1053 W/m2
12:14 29.8 °C 18.8 °C 1007.7 hPa Calm   6.4 km/h 51.7% 0 mm 1025 W/m2
12:19 29.8 °C 19.5 °C 1007.7 hPa Calm   6.4 km/h 54.1% 0 mm 772 W/m2
12:24 29.9 °C 19.6 °C 1007.7 hPa Calm   6.4 km/h 54% 0 mm 779 W/m2
12:29 29.9 °C 19.4 °C 1007.7 hPa Calm   6.4 km/h 53.4% 0 mm 737 W/m2
12:34 29.8 °C 19.4 °C 1007.7 hPa WNW 0.2 km/h 6.4 km/h 53.8% 0 mm 1053 W/m2
12:39 29.8 °C 19.1 °C 1007.7 hPa WNW 0.8 km/h 6.4 km/h 52.9% 0 mm 1085 W/m2
12:44 29.7 °C 19.2 °C 1007.7 hPa WNW 1.4 km/h 6.4 km/h 53.2% 0 mm 1046 W/m2
12:49 29.9 °C 19.8 °C 1007.7 hPa WNW 0.8 km/h 6.4 km/h 54.5% 0 mm 1046 W/m2
12:54 30.2 °C 19.5 °C 1007.7 hPa WNW 1.6 km/h 8 km/h 53% 0 mm 990 W/m2
12:59 30.2 °C 19.2 °C 1007.7 hPa ESE 0.6 km/h 8 km/h 51.7% 0 mm 998 W/m2
13:04 30.2 °C 19.1 °C 1007.7 hPa ESE 0.3 km/h 8 km/h 51.7% 0 mm 1000 W/m2
13:09 30.1 °C 19.3 °C 1007.7 hPa ESE 0.2 km/h 4.8 km/h 52.6% 0 mm 988 W/m2
13:14 30.1 °C 19.1 °C 1007.3 hPa East 1.4 km/h 8 km/h 51.9% 0 mm 984 W/m2
13:19 30.2 °C 19.6 °C 1007.3 hPa WNW 2.6 km/h 8 km/h 53% 0 mm 988 W/m2
13:24 30.4 °C 19.2 °C 1007.3 hPa WNW 0.6 km/h 8 km/h 51.2% 0 mm 986 W/m2
13:29 30.2 °C 18.7 °C 1007.3 hPa WNW 1.3 km/h 8 km/h 50% 0 mm 984 W/m2
13:34 30.1 °C 19.3 °C 1007 hPa WNW 1 km/h 8 km/h 52.3% 0 mm 1013 W/m2
13:39 30.1 °C 19.2 °C 1007 hPa SSE 1.1 km/h 6.4 km/h 52.1% 0 mm 1030 W/m2
13:44 29.9 °C 18.9 °C 1007 hPa SE 0.8 km/h 6.4 km/h 52% 0 mm 1016 W/m2
13:49 29.8 °C 18.9 °C 1007 hPa SE 0.3 km/h 6.4 km/h 52% 0 mm 1005 W/m2
13:54 29.9 °C 19.4 °C 1007 hPa SE 1.9 km/h 6.4 km/h 53.3% 0 mm 1004 W/m2
13:59 30.1 °C 19.7 °C 1007 hPa SE 0.8 km/h 6.4 km/h 53.8% 0 mm 976 W/m2
14:04 30.3 °C 20.1 °C 1006.7 hPa SSE 2.9 km/h 8 km/h 54.5% 0 mm 963 W/m2
14:09 30.5 °C 19.8 °C 1006.7 hPa SW 2.3 km/h 9.7 km/h 53% 0 mm 947 W/m2
14:14 30.7 °C 19.8 °C 1006.7 hPa West 1.6 km/h 9.7 km/h 52.3% 0 mm 946 W/m2
14:19 30.7 °C 19.2 °C 1006.7 hPa WSW 1 km/h 9.7 km/h 50.5% 0 mm 933 W/m2
14:24 30.5 °C 19 °C 1006.7 hPa SSW 1.9 km/h 9.7 km/h 50.3% 0 mm 935 W/m2
14:29 30.3 °C 19.2 °C 1006.7 hPa SSW 1.9 km/h 11.3 km/h 51.4% 0 mm 939 W/m2
14:34 30.3 °C 19.2 °C 1006.7 hPa SE 1.3 km/h 11.3 km/h 51.7% 0 mm 939 W/m2
14:39 30.2 °C 19.3 °C 1006.7 hPa WSW 2.3 km/h 11.3 km/h 52.2% 0 mm 912 W/m2
14:44 30.3 °C 19.8 °C 1006.7 hPa WSW 1.8 km/h 11.3 km/h 53.6% 0 mm 916 W/m2
14:49 30.5 °C 19.3 °C 1006.7 hPa WSW 0.8 km/h 11.3 km/h 51.1% 0 mm 932 W/m2
14:54 30.7 °C 19.7 °C 1006.3 hPa WSW 1.8 km/h 11.3 km/h 51.9% 0 mm 932 W/m2
14:59 30.9 °C 19.4 °C 1006.3 hPa SW 0.6 km/h 11.3 km/h 50.5% 0 mm 888 W/m2
15:04 31.1 °C 19.9 °C 1006.3 hPa SW 2.1 km/h 11.3 km/h 51.5% 0 mm 877 W/m2
15:09 31.2 °C 19.9 °C 1006.3 hPa WSW 1.1 km/h 8 km/h 51.2% 0 mm 868 W/m2
15:14 31.2 °C 19.7 °C 1006.3 hPa WSW 1.3 km/h 9.7 km/h 50.6% 0 mm 851 W/m2
15:19 31.2 °C 19.8 °C 1006.7 hPa WSW 2.1 km/h 14.5 km/h 51% 0 mm 842 W/m2
15:24 31.2 °C 19.4 °C 1006.7 hPa West 1.1 km/h 14.5 km/h 49.6% 0 mm 835 W/m2
15:29 31.1 °C 19.5 °C 1006.3 hPa WSW 0.5 km/h 14.5 km/h 50.2% 0 mm 879 W/m2
15:34 31.1 °C 19.9 °C 1006.3 hPa WSW 0.8 km/h 14.5 km/h 51.7% 0 mm 909 W/m2
15:39 31.1 °C 20.2 °C 1006.3 hPa WSW 1.9 km/h 9.7 km/h 52.5% 0 mm 889 W/m2
15:44 31 °C 19.9 °C 1006.3 hPa SW 0.8 km/h 9.7 km/h 51.6% 0 mm 812 W/m2
15:49 30.9 °C 19.6 °C 1006.3 hPa SSW 1.3 km/h 9.7 km/h 50.8% 0 mm 800 W/m2
15:54 30.8 °C 19.8 °C 1006.3 hPa SSW 0.3 km/h 9.7 km/h 51.9% 0 mm 833 W/m2
15:59 30.9 °C 20.3 °C 1006.3 hPa SW 3.1 km/h 16.1 km/h 53.1% 0 mm 796 W/m2
16:00 30.9 °C 20.3 °C 1006.3 hPa Calm   16.1 km/h 53% 0 mm 768 W/m2
16:09 31.2 °C 20.6 °C 1006 hPa WSW 1.1 km/h 4.8 km/h 53.5% 0 mm 795 W/m2
16:14 31 °C 20.4 °C 1006 hPa WSW 1.4 km/h 8 km/h 53.3% 0 mm 793 W/m2
16:19 30.8 °C 20.3 °C 1006.3 hPa WSW 0.3 km/h 8 km/h 53.5% 0 mm 172 W/m2
16:24 30.7 °C 20.5 °C 1006.3 hPa WSW 0.8 km/h 8 km/h 54.6% 0 mm 141 W/m2
16:29 30.6 °C 20.3 °C 1006.3 hPa SW 1.1 km/h 8 km/h 54% 0 mm 130 W/m2
16:34 30.4 °C 20.3 °C 1006.3 hPa SW 0.5 km/h 8 km/h 54.6% 0 mm 137 W/m2
16:39 30.2 °C 20.4 °C 1006.7 hPa SW 1.1 km/h 4.8 km/h 55.8% 0 mm 151 W/m2
16:44 29.9 °C 20.6 °C 1006.7 hPa SW 1.1 km/h 6.4 km/h 57.2% 0 mm 148 W/m2
16:49 29.8 °C 20.7 °C 1006.7 hPa SW 0.6 km/h 8 km/h 57.9% 0 mm 134 W/m2
16:54 29.8 °C 20.5 °C 1006.3 hPa SW 1.8 km/h 8 km/h 57.5% 0 mm 130 W/m2
16:59 29.6 °C 20.2 °C 1006.3 hPa SW 0.5 km/h 8 km/h 57.2% 0 mm 77 W/m2
17:04 29.3 °C 20.1 °C 1006.3 hPa SSW 1.3 km/h 8 km/h 57.7% 0 mm 90 W/m2
17:09 29.1 °C 20 °C 1006.3 hPa SSW 2.1 km/h 11.3 km/h 58.1% 0 mm 132 W/m2
17:14 28.8 °C 20.1 °C 1006.3 hPa SSW 0.5 km/h 11.3 km/h 59.3% 0 mm 98 W/m2
17:19 28.8 °C 20.2 °C 1006.3 hPa SSW 1.8 km/h 11.3 km/h 59.7% 0 mm 63 W/m2
17:24 28.9 °C 20.2 °C 1006.3 hPa South 1 km/h 11.3 km/h 59.4% 0 mm 76 W/m2
17:29 28.9 °C 20.3 °C 1006.3 hPa South 0.6 km/h 11.3 km/h 59.7% 0 mm 69 W/m2
17:34 29.1 °C 20.4 °C 1006.3 hPa South 0.3 km/h 11.3 km/h 59.8% 0 mm 62 W/m2
17:39 29.1 °C 20.4 °C 1006 hPa Calm   8 km/h 59.7% 0 mm 49 W/m2
17:44 29.1 °C 20.5 °C 1006.3 hPa Calm   8 km/h 60% 0 mm 74 W/m2
17:49 29 °C 20.8 °C 1006 hPa Calm   8 km/h 61.2% 0 mm 74 W/m2
17:54 29.1 °C 20.5 °C 1006 hPa Calm   8 km/h 60% 0 mm 53 W/m2
17:59 29.2 °C 20.5 °C 1006 hPa South 0.2 km/h 8 km/h 59.6% 0 mm 39 W/m2
18:04 29.3 °C 20.5 °C 1006 hPa SSW 0.3 km/h 8 km/h 59.3% 0 mm 39 W/m2
18:09 29.4 °C 20.5 °C 1006.3 hPa SSW 0.3 km/h 6.4 km/h 58.9% 0 mm 42 W/m2
18:14 29.4 °C 20.4 °C 1006.3 hPa SSW 0.3 km/h 6.4 km/h 58.5% 0 mm 53 W/m2
18:19 29.5 °C 20.4 °C 1006.3 hPa SSW 3.1 km/h 8 km/h 58.1% 0 mm 53 W/m2
18:24 29.6 °C 20.4 °C 1006.3 hPa SSW 1.6 km/h 8 km/h 57.8% 0 mm 49 W/m2
18:29 29.7 °C 20.6 °C 1006.3 hPa SW 3.2 km/h 9.7 km/h 58.1% 0 mm 42 W/m2
18:34 29.7 °C 20.3 °C 1006.3 hPa SW 1.6 km/h 9.7 km/h 57.2% 0 mm 35 W/m2
18:39 29.7 °C 20.6 °C 1006.3 hPa WSW 1.6 km/h 6.4 km/h 58.1% 0 mm 32 W/m2
18:44 29.6 °C 20.5 °C 1006.3 hPa WSW 2.7 km/h 9.7 km/h 58.1% 0 mm 32 W/m2
18:49 29.5 °C 20.4 °C 1006.7 hPa WSW 1.1 km/h 9.7 km/h 58.2% 0 mm 30 W/m2
18:54 29.3 °C 20.7 °C 1006.7 hPa SW 1.1 km/h 9.7 km/h 59.6% 0 mm 26 W/m2
18:59 29 °C 20.8 °C 1006.7 hPa SSW 1.1 km/h 9.7 km/h 61.4% 0 mm 30 W/m2
19:04 28.7 °C 20.9 °C 1006.7 hPa SW 1 km/h 9.7 km/h 62.8% 0 mm 28 W/m2
19:09 28.4 °C 21.1 °C 1006.7 hPa SW 1.1 km/h 9.7 km/h 64.3% 0 mm 19 W/m2
19:14 28.2 °C 21.1 °C 1006.7 hPa SSW 0.8 km/h 9.7 km/h 65% 0 mm 25 W/m2
19:19 28.1 °C 21.1 °C 1006.7 hPa SW 0.6 km/h 9.7 km/h 65.9% 0 mm 19 W/m2
19:24 27.9 °C 21 °C 1007 hPa SSW 0.5 km/h 9.7 km/h 66.4% 0 mm 16 W/m2
19:29 27.7 °C 21.1 °C 1007 hPa SSW 0.6 km/h 9.7 km/h 67% 0 mm 14 W/m2
19:34 27.6 °C 21.2 °C 1007 hPa SW 1.3 km/h 9.7 km/h 68% 0 mm 16 W/m2
19:39 27.4 °C 21 °C 1006.7 hPa SW 0.8 km/h 8 km/h 68% 0 mm 12 W/m2
19:44 27.3 °C 20.9 °C 1007 hPa WSW 1.8 km/h 9.7 km/h 68.3% 0 mm 9 W/m2
19:49 27.2 °C 21 °C 1007 hPa SSW 0.8 km/h 9.7 km/h 69% 0 mm 7 W/m2
19:54 27.1 °C 20.9 °C 1007 hPa SW 0.2 km/h 9.7 km/h 69.2% 0 mm 9 W/m2
19:59 26.9 °C 21.1 °C 1007 hPa SW 0.2 km/h 9.7 km/h 70% 0 mm 7 W/m2
20:04 26.8 °C 20.9 °C 1007 hPa Calm   9.7 km/h 70% 0 mm 7 W/m2
20:09 26.8 °C 21 °C 1007 hPa Calm     70.5% 0 mm 7 W/m2
20:14 26.7 °C 21 °C 1007 hPa SSW 0.3 km/h 3.2 km/h 71% 0 mm 5 W/m2
20:19 26.6 °C 20.9 °C 1007 hPa SSW 0.2 km/h 3.2 km/h 71% 0 mm 5 W/m2
20:24 26.5 °C 20.9 °C 1007 hPa SSW 1.1 km/h 4.8 km/h 71.2% 0 mm 0 W/m2
20:29 26.4 °C 20.9 °C 1007 hPa Calm   4.8 km/h 72% 0 mm 0 W/m2
20:34 26.3 °C 21.1 °C 1007 hPa Calm   4.8 km/h 72.8% 0 mm 0 W/m2
20:39 26.3 °C 21.1 °C 1007 hPa SSW 0.2 km/h 3.2 km/h 73% 0 mm 0 W/m2
20:44 26.2 °C 21 °C 1007.3 hPa SSW 0.3 km/h 6.4 km/h 73% 0 mm 0 W/m2
20:49 26.2 °C 21 °C 1007.3 hPa WSW 0.2 km/h 6.4 km/h 73.2% 0 mm 0 W/m2
20:54 26.1 °C 21.1 °C 1007.3 hPa WSW 0.3 km/h 6.4 km/h 74% 0 mm 0 W/m2
20:59 25.9 °C 21 °C 1007.3 hPa WSW 0.3 km/h 8 km/h 74% 0 mm 0 W/m2
21:04 25.9 °C 20.9 °C 1007.3 hPa WSW 0.2 km/h 8 km/h 74% 0 mm 0 W/m2
21:09 25.8 °C 20.9 °C 1007.3 hPa Calm   3.2 km/h 74.3% 0 mm 0 W/m2
21:14 25.8 °C 21 °C 1007.3 hPa Calm   3.2 km/h 75% 0 mm 0 W/m2
21:19 25.7 °C 20.9 °C 1007.7 hPa Calm   3.2 km/h 75% 0 mm 0 W/m2
21:24 25.7 °C 20.9 °C 1007.7 hPa Calm   3.2 km/h 75% 0 mm 0 W/m2
21:29 25.6 °C 20.8 °C 1007.7 hPa Calm   3.2 km/h 75.1% 0 mm 0 W/m2
21:34 25.5 °C 21 °C 1007.7 hPa WSW 0.2 km/h 3.2 km/h 76% 0 mm 0 W/m2
21:39 25.4 °C 20.9 °C 1007.7 hPa WSW 0.2 km/h 3.2 km/h 76% 0 mm 0 W/m2
21:44 25.4 °C 20.8 °C 1007.7 hPa Calm   3.2 km/h 76% 0 mm 0 W/m2
21:49 25.3 °C 20.9 °C 1007.7 hPa WSW 0.2 km/h 4.8 km/h 76.7% 0 mm 0 W/m2
21:54 25.2 °C 20.9 °C 1008 hPa Calm   4.8 km/h 77% 0 mm 0 W/m2
21:59 25.2 °C 20.8 °C 1008 hPa Calm   4.8 km/h 77% 0 mm 0 W/m2
22:04 25.1 °C 20.9 °C 1008 hPa Calm   4.8 km/h 77.7% 0 mm 0 W/m2
22:09 25 °C 20.9 °C 1008 hPa Calm     78% 0 mm 0 W/m2
22:14 24.9 °C 20.8 °C 1008 hPa Calm     78% 0 mm 0 W/m2
22:19 24.8 °C 20.9 °C 1007.7 hPa WSW 0.2 km/h 3.2 km/h 78.5% 0 mm 0 W/m2
22:24 24.8 °C 20.9 °C 1008 hPa Calm   3.2 km/h 79% 0 mm 0 W/m2
22:29 24.7 °C 20.8 °C 1008 hPa Calm   3.2 km/h 79% 0 mm 0 W/m2
22:34 24.7 °C 20.9 °C 1008 hPa Calm   3.2 km/h 79.6% 0 mm 0 W/m2
22:39 24.6 °C 20.9 °C 1007.7 hPa Calm     80% 0 mm 0 W/m2
22:44 24.5 °C 20.8 °C 1007.7 hPa Calm     80% 0 mm 0 W/m2
22:49 24.4 °C 20.8 °C 1007.7 hPa Calm     80% 0 mm 0 W/m2
22:54 24.4 °C 20.7 °C 1007.7 hPa Calm     80% 0 mm 0 W/m2
22:59 24.3 °C 20.8 °C 1007.7 hPa Calm     80.6% 0 mm 0 W/m2
23:04 24.2 °C 20.8 °C 1007.3 hPa Calm     81% 0 mm 0 W/m2
23:09 24.2 °C 20.7 °C 1007.3 hPa Calm   1.6 km/h 81% 0 mm 0 W/m2
23:14 24.1 °C 20.7 °C 1007.3 hPa Calm   1.6 km/h 81.2% 0 mm 0 W/m2
23:19 24 °C 20.6 °C 1007.7 hPa Calm   1.6 km/h 81.2% 0 mm 0 W/m2
23:24 23.9 °C 20.7 °C 1007.7 hPa Calm   1.6 km/h 82% 0 mm 0 W/m2
23:29 23.9 °C 20.7 °C 1007.7 hPa Calm   1.6 km/h 82% 0 mm 0 W/m2
23:34 23.8 °C 20.6 °C 1007.7 hPa Calm   1.6 km/h 82.1% 0 mm 0 W/m2
23:39 23.8 °C 20.7 °C 1007.3 hPa Calm     83% 0 mm 0 W/m2
23:44 23.7 °C 20.7 °C 1007.7 hPa Calm     83% 0 mm 0 W/m2
23:49 23.7 °C 20.6 °C 1007.7 hPa Calm     83% 0 mm 0 W/m2
23:54 23.6 °C 20.6 °C 1007.3 hPa Calm     83% 0 mm 0 W/m2
23:59 23.6 °C 20.5 °C 1007.3 hPa Calm     83% 0 mm 0 W/m2
Hartford County Weather
Compliments of Weather Underground - 2 mb